createdAt,value
2023-05-07T00:00:32.611Z,22.20
2023-05-07T00:02:59.228Z,22.18
2023-05-07T00:05:25.815Z,22.17
2023-05-07T00:07:53.650Z,22.15
2023-05-07T00:10:20.473Z,22.15
2023-05-07T00:12:47.045Z,22.13
2023-05-07T00:15:13.891Z,22.12
2023-05-07T00:17:40.478Z,22.11
2023-05-07T00:20:08.282Z,22.10
2023-05-07T00:22:34.945Z,22.09
2023-05-07T00:25:01.598Z,22.09
2023-05-07T00:27:28.151Z,22.07
2023-05-07T00:29:54.711Z,22.07
2023-05-07T00:32:21.317Z,22.06
2023-05-07T00:34:47.891Z,22.06
2023-05-07T00:37:14.457Z,22.03
2023-05-07T00:39:41.011Z,22.02
2023-05-07T00:42:07.525Z,22.00
2023-05-07T00:44:34.134Z,22.00
2023-05-07T00:47:04.400Z,21.99
2023-05-07T00:49:40.987Z,21.98
2023-05-07T00:52:08.896Z,21.97
2023-05-07T00:54:36.469Z,21.96
2023-05-07T00:57:04.601Z,21.96
2023-05-07T00:59:33.177Z,21.95
2023-05-07T01:02:00.473Z,21.93
2023-05-07T01:04:27.855Z,21.93
2023-05-07T01:06:59.832Z,21.91
2023-05-07T01:09:27.888Z,21.90
2023-05-07T01:11:54.989Z,21.90
2023-05-07T01:14:21.821Z,21.89
2023-05-07T01:16:49.313Z,21.88
2023-05-07T01:19:18.187Z,21.86
2023-05-07T01:21:48.172Z,21.85
2023-05-07T01:24:15.756Z,21.85
2023-05-07T01:26:43.725Z,21.83
2023-05-07T01:29:10.987Z,21.83
2023-05-07T01:31:38.656Z,21.81
2023-05-07T01:34:07.898Z,21.80
2023-05-07T01:36:34.510Z,21.80
2023-05-07T01:39:01.515Z,21.78
2023-05-07T01:41:28.227Z,21.77
2023-05-07T01:43:57.522Z,21.77
2023-05-07T01:46:24.540Z,21.76
2023-05-07T01:48:51.825Z,21.75
2023-05-07T01:51:18.548Z,21.75
2023-05-07T01:53:46.716Z,21.74
2023-05-07T01:56:13.304Z,21.71
2023-05-07T01:58:39.811Z,21.72
2023-05-07T02:01:06.333Z,21.70
2023-05-07T02:03:33.061Z,21.71
2023-05-07T02:05:59.698Z,21.69
2023-05-07T02:08:26.235Z,21.67
2023-05-07T02:10:52.938Z,21.68
2023-05-07T02:13:20.871Z,21.66
2023-05-07T02:15:51.278Z,21.66
2023-05-07T02:18:18.081Z,21.64
2023-05-07T02:20:44.666Z,21.64
2023-05-07T02:23:11.191Z,21.63
2023-05-07T02:25:37.821Z,21.63
2023-05-07T02:28:04.396Z,21.62
2023-05-07T02:30:30.920Z,21.61
2023-05-07T02:32:57.527Z,21.59
2023-05-07T02:35:25.798Z,21.60
2023-05-07T02:37:52.391Z,21.59
2023-05-07T02:40:19.079Z,21.59
2023-05-07T02:42:45.747Z,21.59
2023-05-07T02:45:12.419Z,21.57
2023-05-07T02:47:38.940Z,21.57
2023-05-07T02:50:06.116Z,21.56
2023-05-07T02:52:32.760Z,21.55
2023-05-07T02:54:59.275Z,21.55
2023-05-07T02:57:25.851Z,21.54
2023-05-07T02:59:53.021Z,21.54
2023-05-07T03:02:19.632Z,21.53
2023-05-07T03:04:46.136Z,21.52
2023-05-07T03:07:12.631Z,21.51
2023-05-07T03:09:39.158Z,21.51
2023-05-07T03:12:05.837Z,21.50
2023-05-07T03:14:32.380Z,21.50
2023-05-07T03:16:58.908Z,21.49
2023-05-07T03:19:25.442Z,21.47
2023-05-07T03:21:52.103Z,21.48
2023-05-07T03:24:18.652Z,21.48
2023-05-07T03:26:45.319Z,21.44
2023-05-07T03:29:11.885Z,21.44
2023-05-07T03:31:38.629Z,21.43
2023-05-07T03:34:05.153Z,21.42
2023-05-07T03:36:31.645Z,21.41
2023-05-07T03:38:58.190Z,21.41
2023-05-07T03:41:24.781Z,21.41
2023-05-07T03:43:51.264Z,21.41
2023-05-07T03:46:17.815Z,21.40
2023-05-07T03:48:44.348Z,21.39
2023-05-07T03:51:11.208Z,21.39
2023-05-07T03:53:38.054Z,21.38
2023-05-07T03:56:04.865Z,21.37
2023-05-07T03:58:31.349Z,21.38
2023-05-07T04:00:57.875Z,21.36
2023-05-07T04:03:24.504Z,21.36
2023-05-07T04:05:51.100Z,21.35
2023-05-07T04:08:17.615Z,21.35
2023-05-07T04:10:44.191Z,21.35
2023-05-07T04:13:10.828Z,21.34
2023-05-07T04:15:37.487Z,21.33
2023-05-07T04:18:04.127Z,21.33
2023-05-07T04:20:30.686Z,21.32
2023-05-07T04:22:57.214Z,21.31
2023-05-07T04:25:27.750Z,21.32
2023-05-07T04:27:55.465Z,21.31
2023-05-07T04:30:23.860Z,21.31
2023-05-07T04:32:50.416Z,21.31
2023-05-07T04:35:17.187Z,21.30
2023-05-07T04:37:43.743Z,21.30
2023-05-07T04:40:11.134Z,21.30
2023-05-07T04:42:37.896Z,21.30
2023-05-07T04:45:05.939Z,21.29
2023-05-07T04:47:32.707Z,21.30
2023-05-07T04:49:59.283Z,21.29
2023-05-07T04:52:27.336Z,21.30
2023-05-07T04:54:54.236Z,21.29
2023-05-07T04:57:21.006Z,21.30
2023-05-07T04:59:47.599Z,21.30
2023-05-07T05:02:14.134Z,21.29
2023-05-07T05:04:40.711Z,21.30
2023-05-07T05:07:07.237Z,21.29
2023-05-07T05:09:33.817Z,21.30
2023-05-07T05:12:00.729Z,21.30
2023-05-07T05:14:27.286Z,21.30
2023-05-07T05:16:53.860Z,21.29
2023-05-07T05:19:20.465Z,21.29
2023-05-07T05:21:47.123Z,21.29
2023-05-07T05:24:13.709Z,21.30
2023-05-07T05:26:40.317Z,21.29
2023-05-07T05:29:07.379Z,21.30
2023-05-07T05:31:34.677Z,21.30
2023-05-07T05:34:01.340Z,21.30
2023-05-07T05:36:27.923Z,21.29
2023-05-07T05:38:54.446Z,21.29
2023-05-07T05:41:21.612Z,21.29
2023-05-07T05:43:48.155Z,21.28
2023-05-07T05:46:14.792Z,21.30
2023-05-07T05:48:41.568Z,21.30
2023-05-07T05:51:08.090Z,21.29
2023-05-07T05:53:34.621Z,21.29
2023-05-07T05:56:01.208Z,21.28
2023-05-07T05:58:28.062Z,21.28
2023-05-07T06:00:54.665Z,21.28
2023-05-07T06:03:21.306Z,21.28
2023-05-07T06:05:47.929Z,21.26
2023-05-07T06:08:14.484Z,21.27
2023-05-07T06:10:41.234Z,21.28
2023-05-07T06:13:07.976Z,21.25
2023-05-07T06:15:34.548Z,21.27
2023-05-07T06:18:01.115Z,21.25
2023-05-07T06:20:27.655Z,21.26
2023-05-07T06:22:54.252Z,21.27
2023-05-07T06:25:21.032Z,21.25
2023-05-07T06:27:47.824Z,21.27
2023-05-07T06:30:14.367Z,21.27
2023-05-07T06:32:42.031Z,21.27
2023-05-07T06:35:09.118Z,21.26
2023-05-07T06:37:35.621Z,21.25
2023-05-07T06:40:02.193Z,21.27
2023-05-07T06:42:28.727Z,21.27
2023-05-07T06:44:55.996Z,21.27
2023-05-07T06:47:22.623Z,21.27
2023-05-07T06:49:49.201Z,21.26
2023-05-07T06:52:15.683Z,21.28
2023-05-07T06:54:42.272Z,21.25
2023-05-07T06:57:08.833Z,21.27
2023-05-07T06:59:35.482Z,21.27
2023-05-07T07:02:02.107Z,21.26
2023-05-07T07:04:29.301Z,21.27
2023-05-07T07:06:57.658Z,21.28
2023-05-07T07:09:24.293Z,21.28
2023-05-07T07:11:50.868Z,21.28
2023-05-07T07:14:17.392Z,21.29
2023-05-07T07:16:43.911Z,21.30
2023-05-07T07:19:10.467Z,21.31
2023-05-07T07:21:37.090Z,21.31
2023-05-07T07:24:03.796Z,21.32
2023-05-07T07:26:30.444Z,21.32
2023-05-07T07:28:56.948Z,21.33
2023-05-07T07:31:23.520Z,21.33
2023-05-07T07:33:53.067Z,21.35
2023-05-07T07:36:19.993Z,21.35
2023-05-07T07:38:46.532Z,21.36
2023-05-07T07:41:13.035Z,21.38
2023-05-07T07:43:39.623Z,21.39
2023-05-07T07:46:06.375Z,21.40
2023-05-07T07:48:33.006Z,21.42
2023-05-07T07:50:59.556Z,21.43
2023-05-07T07:53:26.337Z,21.44
2023-05-07T07:55:54.395Z,21.47
2023-05-07T07:58:25.791Z,21.49
2023-05-07T08:00:52.382Z,21.51
2023-05-07T08:03:18.986Z,21.52
2023-05-07T08:05:45.835Z,21.54
2023-05-07T08:08:12.373Z,21.56
2023-05-07T08:10:40.153Z,21.57
2023-05-07T08:13:07.151Z,21.59
2023-05-07T08:15:33.718Z,21.60
2023-05-07T08:18:01.276Z,21.61
2023-05-07T08:20:28.214Z,21.62
2023-05-07T08:22:54.774Z,21.63
2023-05-07T08:25:21.354Z,21.64
2023-05-07T08:27:47.900Z,21.66
2023-05-07T08:30:15.050Z,21.72
2023-05-07T08:32:41.664Z,21.75
2023-05-07T08:35:08.630Z,21.78
2023-05-07T08:37:35.261Z,21.82
2023-05-07T08:40:01.908Z,21.86
2023-05-07T08:42:30.387Z,21.90
2023-05-07T08:44:58.576Z,21.92
2023-05-07T08:47:30.920Z,21.95
2023-05-07T08:49:57.510Z,21.99
2023-05-07T08:52:24.310Z,22.00
2023-05-07T08:54:51.121Z,22.02
2023-05-07T08:57:17.676Z,22.03
2023-05-07T08:59:44.201Z,22.04
2023-05-07T09:02:12.432Z,22.06
2023-05-07T09:04:39.131Z,22.06
2023-05-07T09:07:06.438Z,22.08
2023-05-07T09:09:36.450Z,22.11
2023-05-07T09:12:04.672Z,22.13
2023-05-07T09:14:34.515Z,22.15
2023-05-07T09:17:01.252Z,22.18
2023-05-07T09:19:28.464Z,22.20
2023-05-07T09:22:06.396Z,22.23
2023-05-07T09:24:36.055Z,22.25
2023-05-07T09:27:03.454Z,22.28
2023-05-07T09:29:31.226Z,22.30
2023-05-07T09:31:57.803Z,22.34
2023-05-07T09:34:24.368Z,22.36
2023-05-07T09:36:51.122Z,22.41
2023-05-07T09:39:17.714Z,22.44
2023-05-07T09:41:46.258Z,22.47
2023-05-07T09:44:14.829Z,22.53
2023-05-07T09:46:45.578Z,22.61
2023-05-07T09:49:22.883Z,22.65
2023-05-07T09:51:51.267Z,22.72
2023-05-07T09:54:18.894Z,22.76
2023-05-07T09:56:53.190Z,22.80
2023-05-07T09:59:21.265Z,22.82
2023-05-07T10:01:47.800Z,22.85
2023-05-07T10:04:15.640Z,22.87
2023-05-07T10:06:43.610Z,22.92
2023-05-07T10:09:10.814Z,22.95
2023-05-07T10:11:37.891Z,22.99
2023-05-07T10:14:06.834Z,23.00
2023-05-07T10:16:37.253Z,23.00
2023-05-07T10:19:05.619Z,23.01
2023-05-07T10:21:36.725Z,23.02
2023-05-07T10:24:15.689Z,23.04
2023-05-07T10:26:46.483Z,23.08
2023-05-07T10:29:30.850Z,23.10
2023-05-07T10:32:03.171Z,23.13
2023-05-07T10:34:36.878Z,23.18
2023-05-07T10:37:04.772Z,23.22
2023-05-07T10:39:31.823Z,23.24
2023-05-07T10:42:07.920Z,23.27
2023-05-07T10:44:34.497Z,23.31
2023-05-07T10:47:09.852Z,23.33
2023-05-07T10:49:38.243Z,23.35
2023-05-07T10:52:19.785Z,23.34
2023-05-07T10:54:47.243Z,23.39
2023-05-07T10:57:36.587Z,23.40
2023-05-07T11:00:04.608Z,23.43
2023-05-07T11:03:01.982Z,23.44
2023-05-07T11:05:31.392Z,23.47
2023-05-07T11:08:02.147Z,23.47
2023-05-07T11:10:52.392Z,23.43
2023-05-07T11:13:20.143Z,23.44
2023-05-07T11:15:48.387Z,23.42
2023-05-07T11:18:18.942Z,23.42
2023-05-07T11:20:53.490Z,23.40
2023-05-07T11:23:35.673Z,23.37
2023-05-07T11:26:10.174Z,23.39
2023-05-07T11:28:41.411Z,23.38
2023-05-07T11:31:09.128Z,23.36
2023-05-07T11:33:37.159Z,23.40
2023-05-07T11:36:05.542Z,23.41
2023-05-07T11:38:36.100Z,23.44
2023-05-07T11:41:03.555Z,23.48
2023-05-07T11:43:30.097Z,23.53
2023-05-07T11:46:12.373Z,23.52
2023-05-07T11:48:40.054Z,23.55
2023-05-07T11:51:09.620Z,23.55
2023-05-07T11:53:38.792Z,23.55
2023-05-07T11:56:13.427Z,23.55
2023-05-07T11:58:41.255Z,23.56
2023-05-07T12:01:12.307Z,23.54
2023-05-07T12:03:45.850Z,23.55
2023-05-07T12:06:13.458Z,23.56
2023-05-07T12:08:41.885Z,23.62
2023-05-07T12:11:10.721Z,23.66
2023-05-07T12:13:37.396Z,23.69
2023-05-07T12:16:05.440Z,23.73
2023-05-07T12:18:32.245Z,23.75
2023-05-07T12:21:00.160Z,23.74
2023-05-07T12:23:26.919Z,23.71
2023-05-07T12:25:53.445Z,23.71
2023-05-07T12:28:20.585Z,23.69
2023-05-07T12:30:49.217Z,23.67
2023-05-07T12:33:20.228Z,23.68
2023-05-07T12:35:48.835Z,23.70
2023-05-07T12:38:18.313Z,23.67
2023-05-07T12:40:46.319Z,23.67
2023-05-07T12:43:26.809Z,23.70
2023-05-07T12:45:57.048Z,23.73
2023-05-07T12:48:24.825Z,23.77
2023-05-07T12:50:52.416Z,23.79
2023-05-07T12:53:22.316Z,23.81
2023-05-07T12:55:51.960Z,23.82
2023-05-07T12:58:26.005Z,23.85
2023-05-07T13:00:53.306Z,23.85
2023-05-07T13:03:30.734Z,23.87
2023-05-07T13:05:59.872Z,23.88
2023-05-07T13:08:33.108Z,23.88
2023-05-07T13:11:05.552Z,23.90
2023-05-07T13:13:33.354Z,23.91
2023-05-07T13:16:01.466Z,23.92
2023-05-07T13:18:30.177Z,23.94
2023-05-07T13:20:57.108Z,23.94
2023-05-07T13:23:23.810Z,23.94
2023-05-07T13:25:51.508Z,23.96
2023-05-07T13:28:18.142Z,23.96
2023-05-07T13:30:44.711Z,23.95
2023-05-07T13:33:11.258Z,23.96
2023-05-07T13:35:37.923Z,23.95
2023-05-07T13:38:04.766Z,23.96
2023-05-07T13:40:31.771Z,23.96
2023-05-07T13:43:00.681Z,23.96
2023-05-07T13:45:27.977Z,23.96
2023-05-07T13:47:54.624Z,23.95
2023-05-07T13:50:21.222Z,23.96
2023-05-07T13:52:51.521Z,23.94
2023-05-07T13:55:19.241Z,23.95
2023-05-07T13:57:46.392Z,23.94
2023-05-07T14:00:14.091Z,23.94
2023-05-07T14:02:41.484Z,23.93
2023-05-07T14:05:09.891Z,23.92
2023-05-07T14:07:36.907Z,23.93
2023-05-07T14:10:03.967Z,23.92
2023-05-07T14:12:30.709Z,23.91
2023-05-07T14:14:57.510Z,23.91
2023-05-07T14:17:26.424Z,23.91
2023-05-07T14:19:55.268Z,23.91
2023-05-07T14:22:23.613Z,23.90
2023-05-07T14:25:05.368Z,23.87
2023-05-07T14:27:33.517Z,23.87
2023-05-07T14:30:00.291Z,23.86
2023-05-07T14:32:26.954Z,23.87
2023-05-07T14:34:53.493Z,23.86
2023-05-07T14:37:21.207Z,23.86
2023-05-07T14:39:50.718Z,23.86
2023-05-07T14:42:18.219Z,23.86
2023-05-07T14:44:46.416Z,23.85
2023-05-07T14:47:13.722Z,23.85
2023-05-07T14:49:41.535Z,23.85
2023-05-07T14:52:09.132Z,23.84
2023-05-07T14:54:39.031Z,23.82
2023-05-07T14:57:06.886Z,23.82
2023-05-07T14:59:33.708Z,23.81
2023-05-07T15:02:05.405Z,23.80
2023-05-07T15:04:33.642Z,23.80
2023-05-07T15:07:00.980Z,23.79
2023-05-07T15:09:27.685Z,23.79
2023-05-07T15:11:54.251Z,23.77
2023-05-07T15:14:22.734Z,23.78
2023-05-07T15:16:49.928Z,23.76
2023-05-07T15:19:17.952Z,23.76
2023-05-07T15:21:44.708Z,23.76
2023-05-07T15:24:11.409Z,23.75
2023-05-07T15:26:37.922Z,23.75
2023-05-07T15:29:09.122Z,23.75
2023-05-07T15:31:35.956Z,23.75
2023-05-07T15:34:02.559Z,23.74
2023-05-07T15:36:29.141Z,23.74
2023-05-07T15:38:55.742Z,23.74
2023-05-07T15:41:22.376Z,23.75
2023-05-07T15:43:51.202Z,23.74
2023-05-07T15:46:24.467Z,23.75
2023-05-07T15:48:54.918Z,23.74
2023-05-07T15:51:22.750Z,23.77
2023-05-07T15:53:50.005Z,23.77
2023-05-07T15:56:16.524Z,23.78
2023-05-07T15:58:43.072Z,23.78
2023-05-07T16:01:09.707Z,23.79
2023-05-07T16:03:36.729Z,23.80
2023-05-07T16:06:03.514Z,23.79
2023-05-07T16:08:30.140Z,23.80
2023-05-07T16:10:56.720Z,23.79
2023-05-07T16:13:24.874Z,23.80
2023-05-07T16:15:58.401Z,23.80
2023-05-07T16:18:25.204Z,23.80
2023-05-07T16:20:52.022Z,23.81
2023-05-07T16:23:19.237Z,23.81
2023-05-07T16:25:45.883Z,23.82
2023-05-07T16:28:12.568Z,23.82
2023-05-07T16:30:39.142Z,23.81
2023-05-07T16:33:05.790Z,23.80
2023-05-07T16:35:32.391Z,23.80
2023-05-07T16:37:59.054Z,23.80
2023-05-07T16:40:25.719Z,23.81
2023-05-07T16:42:54.790Z,23.80
2023-05-07T16:45:24.948Z,23.81
2023-05-07T16:47:51.648Z,23.80
2023-05-07T16:50:18.367Z,23.80
2023-05-07T16:52:45.078Z,23.80
2023-05-07T16:55:11.954Z,23.80
2023-05-07T16:57:38.802Z,23.80
2023-05-07T17:00:07.463Z,23.78
2023-05-07T17:02:35.683Z,23.79
2023-05-07T17:05:02.450Z,23.78
2023-05-07T17:07:28.989Z,23.79
2023-05-07T17:09:55.564Z,23.79
2023-05-07T17:12:22.752Z,23.78
2023-05-07T17:14:49.518Z,23.74
2023-05-07T17:17:16.196Z,23.69
2023-05-07T17:19:42.767Z,23.67
2023-05-07T17:22:09.334Z,23.63
2023-05-07T17:24:36.515Z,23.61
2023-05-07T17:27:03.100Z,23.59
2023-05-07T17:29:30.941Z,23.58
2023-05-07T17:31:57.538Z,23.55
2023-05-07T17:34:24.260Z,23.54
2023-05-07T17:36:50.866Z,23.51
2023-05-07T17:39:17.494Z,23.51
2023-05-07T17:41:44.024Z,23.50
2023-05-07T17:44:10.565Z,23.49
2023-05-07T17:46:37.138Z,23.48
2023-05-07T17:49:03.769Z,23.48
2023-05-07T17:51:36.087Z,23.46
2023-05-07T17:54:09.188Z,23.47
2023-05-07T17:56:37.164Z,23.47
2023-05-07T17:59:03.715Z,23.46
2023-05-07T18:01:30.934Z,23.44
2023-05-07T18:03:57.694Z,23.43
2023-05-07T18:06:24.307Z,23.42
2023-05-07T18:08:50.989Z,23.41
2023-05-07T18:11:17.692Z,23.40
2023-05-07T18:13:44.308Z,23.40
2023-05-07T18:16:10.996Z,23.43
2023-05-07T18:18:37.693Z,23.43
2023-05-07T18:21:04.655Z,23.44
2023-05-07T18:23:31.248Z,23.42
2023-05-07T18:25:57.798Z,23.39
2023-05-07T18:28:24.386Z,23.38
2023-05-07T18:30:50.964Z,23.37
2023-05-07T18:33:17.648Z,23.36
2023-05-07T18:35:44.449Z,23.35
2023-05-07T18:38:11.122Z,23.34
2023-05-07T18:40:37.887Z,23.34
2023-05-07T18:43:07.033Z,23.33
2023-05-07T18:45:34.343Z,23.32
2023-05-07T18:48:01.578Z,23.32
2023-05-07T18:50:28.125Z,23.32
2023-05-07T18:52:54.728Z,23.32
2023-05-07T18:55:22.123Z,23.33
2023-05-07T18:57:49.506Z,23.32
2023-05-07T19:00:16.506Z,23.32
2023-05-07T19:02:43.100Z,23.32
2023-05-07T19:05:09.757Z,23.32
2023-05-07T19:07:36.453Z,23.34
2023-05-07T19:10:06.006Z,23.33
2023-05-07T19:12:32.869Z,23.35
2023-05-07T19:14:59.402Z,23.36
2023-05-07T19:17:25.979Z,23.35
2023-05-07T19:19:52.526Z,23.33
2023-05-07T19:22:19.104Z,23.33
2023-05-07T19:24:45.687Z,23.33
2023-05-07T19:27:12.277Z,23.34
2023-05-07T19:29:39.792Z,23.35
2023-05-07T19:32:06.451Z,23.34
2023-05-07T19:34:33.111Z,23.34
2023-05-07T19:36:59.655Z,23.34
2023-05-07T19:39:26.234Z,23.33
2023-05-07T19:41:52.768Z,23.34
2023-05-07T19:44:19.333Z,23.33
2023-05-07T19:46:47.738Z,23.32
2023-05-07T19:49:14.469Z,23.30
2023-05-07T19:51:41.294Z,23.30
2023-05-07T19:54:07.826Z,23.29
2023-05-07T19:56:34.414Z,23.28
2023-05-07T19:59:01.054Z,23.27
2023-05-07T20:01:29.237Z,23.27
2023-05-07T20:03:56.280Z,23.26
2023-05-07T20:06:23.496Z,23.25
2023-05-07T20:08:50.768Z,23.23
2023-05-07T20:11:17.580Z,23.22
2023-05-07T20:13:44.109Z,23.21
2023-05-07T20:16:11.009Z,23.19
2023-05-07T20:18:37.654Z,23.17
2023-05-07T20:21:04.987Z,23.15
2023-05-07T20:23:31.624Z,23.14
2023-05-07T20:25:59.097Z,23.11
2023-05-07T20:28:25.780Z,23.09
2023-05-07T20:30:52.454Z,23.07
2023-05-07T20:33:19.083Z,23.05
2023-05-07T20:35:45.642Z,23.01
2023-05-07T20:38:12.246Z,22.99
2023-05-07T20:40:38.943Z,22.97
2023-05-07T20:43:06.497Z,22.95
2023-05-07T20:45:33.309Z,22.93
2023-05-07T20:48:01.138Z,22.92
2023-05-07T20:50:27.851Z,22.89
2023-05-07T20:52:54.420Z,22.87
2023-05-07T20:55:21.091Z,22.86
2023-05-07T20:57:47.707Z,22.85
2023-05-07T21:00:15.839Z,22.84
2023-05-07T21:02:43.625Z,22.82
2023-05-07T21:05:10.174Z,22.82
2023-05-07T21:07:36.766Z,22.80
2023-05-07T21:10:03.517Z,22.80
2023-05-07T21:12:30.052Z,22.79
2023-05-07T21:14:56.876Z,22.79
2023-05-07T21:17:23.405Z,22.77
2023-05-07T21:19:50.096Z,22.78
2023-05-07T21:22:16.589Z,22.77
2023-05-07T21:24:43.200Z,22.76
2023-05-07T21:27:09.816Z,22.75
2023-05-07T21:29:36.438Z,22.74
2023-05-07T21:32:03.785Z,22.73
2023-05-07T21:34:30.382Z,22.73
2023-05-07T21:36:57.062Z,22.72
2023-05-07T21:39:24.752Z,22.72
2023-05-07T21:41:51.294Z,22.70
2023-05-07T21:44:17.880Z,22.70
2023-05-07T21:46:44.601Z,22.69
2023-05-07T21:49:11.923Z,22.67
2023-05-07T21:51:38.504Z,22.64
2023-05-07T21:54:05.113Z,22.63
2023-05-07T21:56:31.610Z,22.61
2023-05-07T21:58:58.192Z,22.60
2023-05-07T22:01:24.911Z,22.58
2023-05-07T22:03:51.996Z,22.56
2023-05-07T22:06:21.708Z,22.54
2023-05-07T22:08:51.467Z,22.54
2023-05-07T22:11:18.197Z,22.52
2023-05-07T22:13:44.776Z,22.51
2023-05-07T22:16:11.337Z,22.49
2023-05-07T22:18:37.893Z,22.49
2023-05-07T22:21:04.616Z,22.47
2023-05-07T22:23:31.217Z,22.46
2023-05-07T22:25:58.285Z,22.45
2023-05-07T22:28:24.881Z,22.45
2023-05-07T22:30:51.377Z,22.44
2023-05-07T22:33:18.017Z,22.42
2023-05-07T22:35:44.556Z,22.41
2023-05-07T22:38:11.175Z,22.40
2023-05-07T22:40:37.690Z,22.39
2023-05-07T22:43:04.231Z,22.39
2023-05-07T22:45:30.827Z,22.37
2023-05-07T22:47:57.440Z,22.37
2023-05-07T22:50:24.142Z,22.35
2023-05-07T22:52:50.749Z,22.34
2023-05-07T22:55:17.519Z,22.34
2023-05-07T22:57:44.117Z,22.31
2023-05-07T23:00:11.974Z,22.30
2023-05-07T23:02:38.937Z,22.28
2023-05-07T23:05:05.723Z,22.28
2023-05-07T23:07:32.258Z,22.25
2023-05-07T23:09:59.106Z,22.24
2023-05-07T23:12:25.741Z,22.23
2023-05-07T23:14:52.303Z,22.21
2023-05-07T23:17:18.822Z,22.18
2023-05-07T23:19:45.372Z,22.18
2023-05-07T23:22:12.312Z,22.17
2023-05-07T23:24:39.246Z,22.15
2023-05-07T23:27:06.655Z,22.14
2023-05-07T23:29:33.462Z,22.13
2023-05-07T23:32:00.714Z,22.12
2023-05-07T23:34:27.489Z,22.10
2023-05-07T23:36:54.240Z,22.10
2023-05-07T23:39:20.948Z,22.09
2023-05-07T23:41:47.527Z,22.08
2023-05-07T23:44:16.494Z,22.07
2023-05-07T23:46:44.434Z,22.06
2023-05-07T23:49:11.292Z,22.05
2023-05-07T23:51:37.994Z,22.04
2023-05-07T23:54:05.002Z,22.02
2023-05-07T23:56:31.625Z,22.01
2023-05-07T23:58:58.212Z,22.01
